Time;durP1;ratioP1;P1;durP2;ratioP2;P2;SDS_P1;SDS_P2;PMS_P1;PMS_P2;Temp;Humidity;BMP_temperature;BMP_pressure;BME280_temperature;BME280_humidity;BME280_pressure;Samples;Min_cycle;Max_cycle;Signal;HPM_P1;HPM_P2
2024/03/06 00:01:54;;;;;;;20.33;13.63;;;;;;;;;;5027869;28;20212;-86
2024/03/06 00:04:58;;;;;;;20.40;13.07;;;;;;;;;;5027004;28;20169;-86
2024/03/06 00:08:03;;;;;;;18.33;12.70;;;;;;;;;;5026707;28;20181;-86
2024/03/06 00:11:07;;;;;;;17.13;12.60;;;;;;;;;;5026457;28;20221;-86
2024/03/06 00:14:14;;;;;;;17.40;12.47;;;;;;;;;;5037877;28;20185;-86
2024/03/06 00:17:18;;;;;;;18.00;12.40;;;;;;;;;;5037459;28;20177;-86
2024/03/06 00:20:23;;;;;;;17.97;12.73;;;;;;;;;;5038118;28;20220;-85
2024/03/06 00:23:27;;;;;;;19.63;13.80;;;;;;;;;;5026381;28;20657;-85
2024/03/06 00:26:31;;;;;;;19.33;12.97;;;;;;;;;;5015026;28;20189;-86
2024/03/06 00:29:37;;;;;;;20.00;13.13;;;;;;;;;;5015220;28;20177;-86
2024/03/06 00:32:41;;;;;;;18.07;13.10;;;;;;;;;;5015320;28;20554;-86
2024/03/06 00:35:46;;;;;;;18.43;12.27;;;;;;;;;;5037491;28;20634;-85
2024/03/06 00:38:50;;;;;;;17.03;12.57;;;;;;;;;;5037616;28;20181;-86
2024/03/06 00:41:55;;;;;;;19.70;12.90;;;;;;;;;;5026071;28;20181;-86
2024/03/06 00:44:59;;;;;;;17.40;12.43;;;;;;;;;;5026092;28;20177;-86
2024/03/06 00:48:03;;;;;;;18.70;12.53;;;;;;;;;;5026508;28;20177;-86
2024/03/06 00:51:07;;;;;;;18.53;13.77;;;;;;;;;;5037331;28;20220;-86
2024/03/06 00:54:11;;;;;;;21.70;13.27;;;;;;;;;;5037412;28;20176;-85
2024/03/06 00:57:16;;;;;;;21.73;12.67;;;;;;;;;;5026307;28;20184;-85
2024/03/06 01:00:20;;;;;;;21.00;12.47;;;;;;;;;;5026151;28;20220;-86
2024/03/06 01:03:24;;;;;;;17.10;12.27;;;;;;;;;;5036842;28;20212;-86
2024/03/06 01:06:28;;;;;;;20.13;13.03;;;;;;;;;;5025455;28;20181;-85
2024/03/06 01:09:33;;;;;;;21.20;13.77;;;;;;;;;;5025887;28;20181;-85
2024/03/06 01:12:38;;;;;;;18.50;12.53;;;;;;;;;;5015039;28;20181;-85
2024/03/06 01:15:42;;;;;;;21.90;13.43;;;;;;;;;;5037759;28;20184;-87
2024/03/06 01:18:46;;;;;;;21.27;13.53;;;;;;;;;;5024500;28;20177;-85
2024/03/06 01:21:51;;;;;;;21.27;13.83;;;;;;;;;;5023687;28;20511;-85
2024/03/06 01:24:55;;;;;;;24.80;14.20;;;;;;;;;;5035288;28;20696;-86
2024/03/06 01:27:59;;;;;;;20.63;13.13;;;;;;;;;;5024710;28;20176;-85
2024/03/06 01:31:03;;;;;;;21.90;14.00;;;;;;;;;;5013527;28;20215;-86
2024/03/06 01:34:07;;;;;;;21.57;14.03;;;;;;;;;;5025303;28;20177;-86
2024/03/06 01:37:11;;;;;;;22.03;14.37;;;;;;;;;;5036124;28;20180;-85
2024/03/06 01:40:15;;;;;;;23.57;14.27;;;;;;;;;;5036166;28;20216;-85
2024/03/06 01:43:21;;;;;;;22.97;13.47;;;;;;;;;;5014055;28;20217;-86
2024/03/06 01:46:25;;;;;;;24.77;14.47;;;;;;;;;;5036612;28;20180;-85
2024/03/06 01:49:31;;;;;;;24.57;14.77;;;;;;;;;;5036176;28;20181;-86
2024/03/06 01:52:39;;;;;;;26.13;14.53;;;;;;;;;;5025371;28;20188;-86
2024/03/06 01:55:43;;;;;;;25.17;14.30;;;;;;;;;;5025105;28;20180;-85
2024/03/06 01:58:48;;;;;;;26.07;15.10;;;;;;;;;;5035185;28;20184;-85
2024/03/06 02:01:54;;;;;;;27.47;17.07;;;;;;;;;;5023831;28;20204;-85
2024/03/06 02:04:59;;;;;;;23.40;14.83;;;;;;;;;;5035792;28;20213;-87
2024/03/06 02:08:05;;;;;;;23.90;15.07;;;;;;;;;;5025228;28;20181;-86
2024/03/06 02:11:09;;;;;;;29.03;15.73;;;;;;;;;;5024839;28;20220;-86
2024/03/06 02:14:14;;;;;;;26.20;15.00;;;;;;;;;;5025251;28;20181;-86
2024/03/06 02:17:18;;;;;;;25.17;14.77;;;;;;;;;;5036007;28;20181;-85
2024/03/06 02:20:24;;;;;;;22.80;15.00;;;;;;;;;;5024936;28;20224;-86
2024/03/06 02:23:28;;;;;;;24.40;15.60;;;;;;;;;;5036117;28;20204;-85
2024/03/06 02:26:32;;;;;;;25.80;15.23;;;;;;;;;;5024856;28;20180;-86
2024/03/06 02:29:38;;;;;;;25.77;16.20;;;;;;;;;;5035714;28;20181;-85
2024/03/06 02:32:43;;;;;;;23.93;15.10;;;;;;;;;;5036076;28;20533;-86
2024/03/06 02:35:48;;;;;;;26.60;15.70;;;;;;;;;;5024407;28;20181;-85
2024/03/06 02:38:52;;;;;;;23.50;15.00;;;;;;;;;;5035599;28;20189;-85
2024/03/06 02:41:56;;;;;;;24.70;16.53;;;;;;;;;;5024375;28;20180;-85
2024/03/06 02:45:00;;;;;;;25.07;15.27;;;;;;;;;;5024416;28;20216;-85
2024/03/06 02:48:06;;;;;;;24.03;14.63;;;;;;;;;;5024998;28;20181;-86
2024/03/06 02:51:10;;;;;;;27.20;15.80;;;;;;;;;;5024574;28;20221;-86
2024/03/06 02:54:14;;;;;;;27.40;16.03;;;;;;;;;;5035522;28;20181;-87
2024/03/06 02:57:18;;;;;;;25.77;14.53;;;;;;;;;;5013681;28;20181;-86
2024/03/06 03:00:22;;;;;;;28.50;16.70;;;;;;;;;;5036111;28;20228;-85
2024/03/06 03:03:27;;;;;;;25.83;15.37;;;;;;;;;;5024636;28;20185;-85
2024/03/06 03:06:31;;;;;;;26.33;15.93;;;;;;;;;;5024529;28;20185;-86
2024/03/06 03:09:36;;;;;;;30.00;16.13;;;;;;;;;;5023671;28;20189;-86
2024/03/06 03:12:40;;;;;;;25.00;15.30;;;;;;;;;;5023913;28;20185;-85
2024/03/06 03:15:44;;;;;;;27.17;15.07;;;;;;;;;;5024164;28;20181;-86
2024/03/06 03:18:48;;;;;;;27.93;15.37;;;;;;;;;;5023983;28;20181;-85
2024/03/06 03:21:52;;;;;;;25.20;15.20;;;;;;;;;;5025172;28;20185;-85
2024/03/06 03:24:57;;;;;;;28.63;15.87;;;;;;;;;;5014356;28;20209;-85
2024/03/06 03:28:01;;;;;;;25.50;15.23;;;;;;;;;;5026324;28;20181;-85
2024/03/06 03:31:08;;;;;;;26.00;14.80;;;;;;;;;;5026098;28;20220;-85
2024/03/06 03:34:12;;;;;;;24.80;15.70;;;;;;;;;;5038236;28;20189;-86
2024/03/06 03:37:16;;;;;;;29.03;16.87;;;;;;;;;;5038663;28;20641;-85
2024/03/06 03:40:21;;;;;;;26.73;15.37;;;;;;;;;;5037874;28;20220;-86
2024/03/06 03:43:26;;;;;;;24.80;15.13;;;;;;;;;;5038443;28;20181;-85
2024/03/06 03:46:30;;;;;;;25.73;14.97;;;;;;;;;;5026931;28;20184;-86
2024/03/06 03:49:35;;;;;;;29.67;15.67;;;;;;;;;;5026163;28;20184;-90
2024/03/06 03:52:41;;;;;;;27.47;15.83;;;;;;;;;;5024835;28;20181;-90
2024/03/06 03:55:45;;;;;;;24.13;15.43;;;;;;;;;;5036305;28;20185;-89
2024/03/06 03:58:49;;;;;;;26.47;15.97;;;;;;;;;;5013815;28;20184;-89
2024/03/06 04:01:53;;;;;;;25.13;15.23;;;;;;;;;;5035846;28;20673;-90
2024/03/06 04:04:57;;;;;;;22.83;13.77;;;;;;;;;;5024716;28;20213;-90
2024/03/06 04:08:01;;;;;;;27.70;16.23;;;;;;;;;;5024862;28;20181;-90
2024/03/06 04:11:06;;;;;;;26.23;15.13;;;;;;;;;;5024684;28;20212;-90
2024/03/06 04:14:10;;;;;;;26.20;14.93;;;;;;;;;;5036677;28;20181;-89
2024/03/06 04:17:15;;;;;;;30.27;16.37;;;;;;;;;;5024677;28;20210;-90
2024/03/06 04:20:19;;;;;;;26.53;15.57;;;;;;;;;;5024167;28;20217;-90
2024/03/06 04:23:23;;;;;;;26.57;16.43;;;;;;;;;;5024539;28;20181;-90
2024/03/06 04:26:27;;;;;;;24.93;15.37;;;;;;;;;;5035303;28;20177;-90
2024/03/06 04:29:31;;;;;;;24.93;15.17;;;;;;;;;;5024014;28;20180;-90
2024/03/06 04:32:35;;;;;;;26.77;16.80;;;;;;;;;;5036253;28;20177;-90
2024/03/06 04:35:39;;;;;;;26.90;15.40;;;;;;;;;;5035665;28;20177;-90
2024/03/06 04:38:44;;;;;;;25.10;14.80;;;;;;;;;;5035332;28;20634;-90
2024/03/06 04:41:49;;;;;;;25.50;15.37;;;;;;;;;;5024225;28;20185;-89
2024/03/06 04:44:53;;;;;;;26.80;16.60;;;;;;;;;;5034928;28;20212;-90
2024/03/06 04:47:57;;;;;;;24.83;14.43;;;;;;;;;;5012887;28;20523;-90
2024/03/06 04:51:01;;;;;;;25.53;15.00;;;;;;;;;;5035382;28;20212;-90
2024/03/06 04:54:05;;;;;;;29.70;16.43;;;;;;;;;;5035077;28;20184;-90
2024/03/06 04:57:10;;;;;;;26.90;16.17;;;;;;;;;;5035641;28;20180;-90
2024/03/06 05:00:15;;;;;;;25.10;14.67;;;;;;;;;;5047776;28;20713;-89
2024/03/06 05:03:19;;;;;;;29.07;15.70;;;;;;;;;;5034670;28;20172;-90
2024/03/06 05:06:23;;;;;;;25.57;15.33;;;;;;;;;;5023565;28;20515;-89
2024/03/06 05:09:27;;;;;;;28.90;16.47;;;;;;;;;;5034948;28;20181;-90
2024/03/06 05:12:32;;;;;;;29.63;16.07;;;;;;;;;;5034926;28;20515;-89
2024/03/06 05:15:36;;;;;;;26.93;15.63;;;;;;;;;;5035391;28;20177;-90
2024/03/06 05:18:40;;;;;;;26.50;15.07;;;;;;;;;;5023227;28;20180;-90
2024/03/06 05:21:44;;;;;;;27.47;16.00;;;;;;;;;;5034643;28;20181;-89
2024/03/06 05:24:48;;;;;;;29.13;16.63;;;;;;;;;;5035222;28;20216;-89
2024/03/06 05:27:52;;;;;;;28.37;16.27;;;;;;;;;;5034990;28;20185;-90
2024/03/06 05:30:56;;;;;;;27.87;16.07;;;;;;;;;;5034488;28;20216;-90
2024/03/06 05:34:01;;;;;;;29.77;16.13;;;;;;;;;;5034185;28;20206;-89
2024/03/06 05:37:05;;;;;;;28.30;15.70;;;;;;;;;;5035183;28;20181;-89
2024/03/06 05:40:10;;;;;;;28.73;16.03;;;;;;;;;;5023413;28;20684;-89
2024/03/06 05:43:15;;;;;;;35.07;17.33;;;;;;;;;;5022905;28;20189;-90
2024/03/06 05:46:19;;;;;;;28.10;15.93;;;;;;;;;;5035238;28;20205;-90
2024/03/06 05:49:23;;;;;;;25.47;15.83;;;;;;;;;;5034852;28;20529;-90
2024/03/06 05:52:28;;;;;;;30.53;16.83;;;;;;;;;;5023980;28;20176;-90
2024/03/06 05:55:33;;;;;;;29.20;16.70;;;;;;;;;;5034789;28;20177;-90
2024/03/06 05:58:37;;;;;;;29.33;16.10;;;;;;;;;;5023973;28;20185;-90
2024/03/06 06:01:42;;;;;;;28.43;15.83;;;;;;;;;;5026208;28;20232;-89
2024/03/06 06:04:46;;;;;;;29.60;16.97;;;;;;;;;;5036846;28;20212;-89
2024/03/06 06:08:06;;;;;;;30.43;16.20;;;;;;;;;;5038613;28;20562;-90
2024/03/06 06:11:12;;;;;;;28.50;15.90;;;;;;;;;;5035623;28;20217;-90
2024/03/06 06:14:16;;;;;;;29.37;15.93;;;;;;;;;;5024141;28;20177;-91
2024/03/06 06:17:20;;;;;;;29.27;16.23;;;;;;;;;;5024290;28;20181;-91
2024/03/06 06:20:24;;;;;;;30.30;16.00;;;;;;;;;;5024594;28;20562;-90
2024/03/06 06:23:29;;;;;;;27.17;16.67;;;;;;;;;;5013138;28;20185;-88
2024/03/06 06:26:33;;;;;;;27.00;15.27;;;;;;;;;;5035585;28;20213;-90
2024/03/06 06:29:37;;;;;;;27.40;15.33;;;;;;;;;;5024613;28;20633;-91
2024/03/06 06:32:42;;;;;;;30.87;16.40;;;;;;;;;;5035455;28;20181;-89
2024/03/06 06:35:47;;;;;;;28.20;15.47;;;;;;;;;;5034928;28;20177;-88
2024/03/06 06:38:53;;;;;;;27.17;15.67;;;;;;;;;;5047137;28;20181;-91
2024/03/06 06:41:57;;;;;;;25.13;15.20;;;;;;;;;;5038561;28;20638;-91
2024/03/06 06:45:02;;;;;;;30.43;15.63;;;;;;;;;;5027496;28;20205;-90
2024/03/06 06:48:06;;;;;;;27.73;16.10;;;;;;;;;;5032352;28;20185;-91
2024/03/06 06:51:11;;;;;;;28.43;16.27;;;;;;;;;;5045247;28;20220;-90
2024/03/06 06:54:15;;;;;;;29.97;16.97;;;;;;;;;;5030936;28;20189;-91
2024/03/06 06:57:19;;;;;;;29.57;16.27;;;;;;;;;;5034024;28;20176;-90
2024/03/06 07:00:25;;;;;;;28.37;15.93;;;;;;;;;;5034426;28;20212;-90
2024/03/06 07:03:29;;;;;;;26.50;16.07;;;;;;;;;;5047982;28;20208;-90
2024/03/06 07:06:34;;;;;;;29.60;16.87;;;;;;;;;;5046199;28;20204;-91
2024/03/06 07:09:38;;;;;;;31.30;16.77;;;;;;;;;;5034442;28;20181;-88
2024/03/06 07:12:43;;;;;;;29.90;17.30;;;;;;;;;;5045978;28;20181;-90
2024/03/06 07:15:47;;;;;;;26.37;16.10;;;;;;;;;;5045593;28;20177;-90
2024/03/06 07:18:52;;;;;;;30.70;16.67;;;;;;;;;;5034688;28;20177;-90
2024/03/06 07:21:56;;;;;;;30.93;18.17;;;;;;;;;;5045816;28;20181;-90
2024/03/06 07:25:05;;;;;;;31.40;16.60;;;;;;;;;;5045438;28;20205;-90
2024/03/06 07:28:09;;;;;;;30.03;15.90;;;;;;;;;;5024128;28;20181;-91
2024/03/06 07:31:13;;;;;;;28.70;16.23;;;;;;;;;;5045483;28;20212;-89
2024/03/06 07:34:17;;;;;;;33.33;17.23;;;;;;;;;;5046106;28;20287;-91
2024/03/06 07:37:22;;;;;;;32.47;17.03;;;;;;;;;;5045213;28;20180;-87
2024/03/06 07:40:26;;;;;;;31.17;16.93;;;;;;;;;;5044668;28;20216;-87
2024/03/06 07:43:31;;;;;;;28.07;16.17;;;;;;;;;;5045576;28;20519;-91
2024/03/06 07:46:35;;;;;;;35.23;17.23;;;;;;;;;;5032885;28;20209;-90
2024/03/06 07:49:39;;;;;;;31.13;16.43;;;;;;;;;;5044603;28;20224;-90
2024/03/06 07:52:43;;;;;;;27.07;16.07;;;;;;;;;;5032193;28;20180;-91
2024/03/06 07:55:48;;;;;;;29.57;17.03;;;;;;;;;;5020880;28;20173;-91
2024/03/06 07:58:53;;;;;;;28.70;16.80;;;;;;;;;;5032743;28;20181;-89
2024/03/06 08:01:57;;;;;;;28.73;16.37;;;;;;;;;;5054924;28;20196;-90
2024/03/06 08:05:02;;;;;;;30.83;17.27;;;;;;;;;;5055394;28;20205;-89
2024/03/06 08:08:06;;;;;;;29.10;15.93;;;;;;;;;;5042489;28;20349;-90
2024/03/06 08:11:17;;;;;;;30.43;16.90;;;;;;;;;;5043277;28;20709;-89
2024/03/06 08:14:21;;;;;;;45.80;26.60;;;;;;;;;;5030900;28;20181;-89
2024/03/06 08:17:26;;;;;;;27.83;16.93;;;;;;;;;;5031685;28;20657;-90
2024/03/06 08:20:30;;;;;;;30.77;17.10;;;;;;;;;;5031210;28;20212;-87
2024/03/06 08:23:35;;;;;;;30.20;17.27;;;;;;;;;;5040574;28;20181;-88
2024/03/06 08:26:39;;;;;;;31.70;17.03;;;;;;;;;;5017362;28;20209;-88
2024/03/06 08:29:43;;;;;;;32.63;16.47;;;;;;;;;;5028542;28;20208;-88
2024/03/06 08:32:49;;;;;;;29.97;17.27;;;;;;;;;;5017530;28;20184;-88
2024/03/06 08:35:54;;;;;;;26.13;16.27;;;;;;;;;;5028884;28;20177;-88
2024/03/06 08:38:58;;;;;;;32.17;17.73;;;;;;;;;;5028175;28;20177;-88
2024/03/06 08:42:03;;;;;;;31.50;17.47;;;;;;;;;;5029793;28;20180;-87
2024/03/06 08:45:07;;;;;;;29.17;17.53;;;;;;;;;;5028124;28;20172;-87
2024/03/06 08:48:11;;;;;;;31.93;17.23;;;;;;;;;;5027434;28;20173;-86
2024/03/06 08:51:16;;;;;;;27.80;16.80;;;;;;;;;;5038877;28;20571;-86
2024/03/06 08:54:20;;;;;;;30.63;17.17;;;;;;;;;;5027280;28;20173;-86
2024/03/06 08:57:28;;;;;;;37.07;18.53;;;;;;;;;;5039935;28;20172;-86
2024/03/06 09:00:31;;;;;;;29.50;16.30;;;;;;;;;;5038645;28;20212;-86
2024/03/06 09:03:36;;;;;;;32.50;16.93;;;;;;;;;;5039791;28;20216;-86
2024/03/06 09:06:40;;;;;;;30.00;16.80;;;;;;;;;;5027854;28;20205;-86
2024/03/06 09:09:45;;;;;;;28.93;16.53;;;;;;;;;;5027128;28;20212;-86
2024/03/06 09:12:50;;;;;;;29.53;16.70;;;;;;;;;;5026537;28;20180;-88
2024/03/06 09:15:53;;;;;;;26.80;16.57;;;;;;;;;;5026337;28;20173;-87
2024/03/06 09:18:57;;;;;;;29.77;16.33;;;;;;;;;;5036472;28;20206;-88
2024/03/06 09:22:02;;;;;;;36.23;21.77;;;;;;;;;;5027392;28;20173;-87
2024/03/06 09:25:08;;;;;;;30.37;17.67;;;;;;;;;;5036645;28;20193;-89
2024/03/06 09:28:12;;;;;;;28.37;16.97;;;;;;;;;;5025884;28;20177;-88
2024/03/06 09:31:16;;;;;;;28.70;17.10;;;;;;;;;;5026958;28;20220;-88
2024/03/06 09:34:21;;;;;;;29.63;16.50;;;;;;;;;;5036972;28;20550;-88
2024/03/06 09:37:26;;;;;;;26.60;15.97;;;;;;;;;;5036821;28;20177;-89
2024/03/06 09:40:31;;;;;;;28.73;17.03;;;;;;;;;;5013726;28;20220;-88
2024/03/06 09:43:35;;;;;;;28.30;16.60;;;;;;;;;;5038417;28;20528;-88
2024/03/06 09:46:46;;;;;;;26.07;16.10;;;;;;;;;;5015375;28;20209;-88
2024/03/06 09:49:54;;;;;;;28.83;17.03;;;;;;;;;;5038040;28;20216;-88
2024/03/06 09:54:03;;;;;;;29.97;17.50;;;;;;;;;;5038061;28;20653;-88
2024/03/06 09:57:18;;;;;;;35.17;18.70;;;;;;;;;;5037318;28;20646;-89
2024/03/06 10:00:23;;;;;;;32.27;19.37;;;;;;;;;;5025631;28;20216;-87
2024/03/06 10:03:28;;;;;;;30.67;17.43;;;;;;;;;;5025723;28;20208;-88
2024/03/06 10:06:32;;;;;;;31.37;18.60;;;;;;;;;;5024587;28;20212;-88
2024/03/06 10:09:37;;;;;;;26.37;16.47;;;;;;;;;;5025636;28;20195;-88
2024/03/06 10:12:42;;;;;;;29.43;18.03;;;;;;;;;;5025226;28;20184;-88
2024/03/06 10:16:11;;;;;;;28.33;16.87;;;;;;;;;;5013960;28;20188;-88
2024/03/06 10:19:18;;;;;;;27.70;17.33;;;;;;;;;;5014646;28;20179;-88
2024/03/06 10:22:24;;;;;;;28.37;17.03;;;;;;;;;;5036256;28;20192;-89
2024/03/06 10:25:28;;;;;;;29.03;16.97;;;;;;;;;;5013465;28;20652;-88
2024/03/06 10:28:32;;;;;;;25.30;14.60;;;;;;;;;;5025635;28;20653;-88
2024/03/06 10:31:36;;;;;;;25.00;14.57;;;;;;;;;;5017493;28;20230;-88
2024/03/06 10:34:41;;;;;;;23.53;15.20;;;;;;;;;;5028785;28;20184;-88
2024/03/06 10:37:52;;;;;;;26.90;15.57;;;;;;;;;;5028633;28;20680;-88
2024/03/06 10:40:57;;;;;;;25.70;15.60;;;;;;;;;;5028732;28;20219;-88
2024/03/06 10:44:03;;;;;;;26.57;15.63;;;;;;;;;;5028787;28;20193;-88
2024/03/06 10:47:15;;;;;;;26.37;14.93;;;;;;;;;;5028931;28;20236;-88
2024/03/06 10:50:49;;;;;;;26.17;14.53;;;;;;;;;;5017788;28;20223;-88
2024/03/06 10:54:32;;;;;;;25.30;14.33;;;;;;;;;;5032754;28;20204;-88
2024/03/06 10:58:08;;;;;;;24.37;14.27;;;;;;;;;;5050330;28;20184;-88
2024/03/06 11:01:18;;;;;;;25.13;14.17;;;;;;;;;;5017120;28;20220;-88
2024/03/06 11:04:40;;;;;;;22.27;14.73;;;;;;;;;;5039788;28;20184;-88
2024/03/06 11:07:58;;;;;;;20.47;13.27;;;;;;;;;;5028658;28;20211;-88
2024/03/06 11:11:22;;;;;;;19.47;12.80;;;;;;;;;;5019842;28;20220;-88
2024/03/06 11:14:26;;;;;;;19.23;12.30;;;;;;;;;;5027698;28;20195;-88
2024/03/06 11:18:25;;;;;;;21.13;12.10;;;;;;;;;;5038990;28;20180;-88
2024/03/06 11:22:42;;;;;;;;;;;;;;;;;;;;;
2024/03/06 11:30:21;;;;;;;21.17;12.60;;;;;;;;;;5028739;28;20581;-88
2024/03/06 11:33:58;;;;;;;19.87;12.33;;;;;;;;;;5016075;28;20192;-88
2024/03/06 11:37:07;;;;;;;21.57;12.73;;;;;;;;;;5026989;28;20180;-88
2024/03/06 11:40:13;;;;;;;23.43;14.03;;;;;;;;;;5026996;28;20613;-88
2024/03/06 11:43:24;;;;;;;25.70;14.80;;;;;;;;;;5025077;28;20192;-89
2024/03/06 11:46:45;;;;;;;21.43;12.93;;;;;;;;;;5026045;28;20212;-89
2024/03/06 11:49:49;;;;;;;25.33;15.17;;;;;;;;;;5039462;28;20243;-88
2024/03/06 11:52:57;;;;;;;25.13;14.73;;;;;;;;;;5027740;28;20184;-88
2024/03/06 11:56:07;;;;;;;26.70;16.07;;;;;;;;;;5038076;28;20208;-89
2024/03/06 11:59:11;;;;;;;22.80;14.93;;;;;;;;;;5014981;28;20188;-89
2024/03/06 12:02:15;;;;;;;24.63;14.83;;;;;;;;;;5026211;28;20215;-89
2024/03/06 12:05:19;;;;;;;26.10;15.00;;;;;;;;;;5037679;28;20188;-88
2024/03/06 12:08:23;;;;;;;26.77;15.77;;;;;;;;;;5026464;28;20184;-89
2024/03/06 12:11:28;;;;;;;25.80;15.70;;;;;;;;;;5037556;28;20713;-89
2024/03/06 12:14:35;;;;;;;28.03;17.50;;;;;;;;;;5038371;28;20649;-88
2024/03/06 12:17:46;;;;;;;26.57;16.80;;;;;;;;;;5038007;28;20634;-89
2024/03/06 12:20:51;;;;;;;28.50;16.70;;;;;;;;;;5026072;28;20224;-89
2024/03/06 12:24:05;;;;;;;24.90;16.13;;;;;;;;;;5026620;28;20192;-89
2024/03/06 12:27:09;;;;;;;24.77;15.23;;;;;;;;;;5038383;28;20215;-89
2024/03/06 12:30:20;;;;;;;26.60;15.83;;;;;;;;;;5038258;28;20585;-89
2024/03/06 12:33:25;;;;;;;30.03;19.40;;;;;;;;;;5049096;28;20184;-89
2024/03/06 12:36:31;;;;;;;24.57;16.53;;;;;;;;;;5026320;28;20196;-89
2024/03/06 12:39:35;;;;;;;36.73;21.53;;;;;;;;;;5014697;28;20214;-88
2024/03/06 12:42:39;;;;;;;30.97;18.07;;;;;;;;;;5037637;28;20673;-88
2024/03/06 12:45:43;;;;;;;28.43;17.33;;;;;;;;;;5014847;28;20203;-88
2024/03/06 12:48:47;;;;;;;24.47;14.80;;;;;;;;;;5048914;28;20184;-86
2024/03/06 12:51:52;;;;;;;27.17;16.17;;;;;;;;;;5039597;28;20192;-86
2024/03/06 12:54:56;;;;;;;23.63;13.23;;;;;;;;;;5039338;28;20203;-87
2024/03/06 12:58:00;;;;;;;22.20;13.97;;;;;;;;;;5037009;28;20188;-89
2024/03/06 13:01:05;;;;;;;23.63;14.33;;;;;;;;;;5036617;28;20219;-89
2024/03/06 13:04:10;;;;;;;22.83;13.90;;;;;;;;;;5025497;28;20188;-89
2024/03/06 13:07:14;;;;;;;22.00;14.20;;;;;;;;;;5028915;28;20215;-88
2024/03/06 13:10:19;;;;;;;24.97;14.10;;;;;;;;;;5039480;28;20708;-88
2024/03/06 13:13:28;;;;;;;20.47;13.97;;;;;;;;;;5039401;28;20193;-88
2024/03/06 13:16:33;;;;;;;23.03;14.33;;;;;;;;;;5029173;28;20183;-86
2024/03/06 13:19:36;;;;;;;19.77;12.97;;;;;;;;;;5028862;28;20180;-87
2024/03/06 13:22:41;;;;;;;19.73;13.70;;;;;;;;;;5039821;28;20211;-87
2024/03/06 13:25:45;;;;;;;21.30;13.43;;;;;;;;;;5040437;28;20185;-87
2024/03/06 13:28:50;;;;;;;21.63;13.17;;;;;;;;;;5039805;28;20173;-87
2024/03/06 13:31:55;;;;;;;20.40;12.57;;;;;;;;;;5027841;28;20181;-87
2024/03/06 13:34:59;;;;;;;20.37;12.83;;;;;;;;;;5039380;28;20531;-89
2024/03/06 13:38:04;;;;;;;25.20;14.93;;;;;;;;;;5016632;28;20181;-87
2024/03/06 13:41:08;;;;;;;21.70;14.40;;;;;;;;;;5038752;28;20221;-86
2024/03/06 13:44:12;;;;;;;21.37;14.00;;;;;;;;;;5026910;28;20184;-86
2024/03/06 13:47:17;;;;;;;21.87;13.90;;;;;;;;;;5025600;28;20220;-86
2024/03/06 13:50:23;;;;;;;21.20;14.47;;;;;;;;;;5038578;28;20550;-86
2024/03/06 13:53:28;;;;;;;21.97;13.63;;;;;;;;;;5025807;28;20193;-86
2024/03/06 13:56:32;;;;;;;20.10;13.13;;;;;;;;;;5026005;28;20184;-87
2024/03/06 13:59:37;;;;;;;23.77;14.33;;;;;;;;;;5025743;28;20180;-86
2024/03/06 14:02:42;;;;;;;21.23;14.53;;;;;;;;;;5037277;28;20205;-87
2024/03/06 14:05:46;;;;;;;24.10;15.63;;;;;;;;;;5049188;28;20181;-86
2024/03/06 14:08:50;;;;;;;23.50;15.63;;;;;;;;;;5035774;28;20213;-87
2024/03/06 14:11:56;;;;;;;25.13;16.07;;;;;;;;;;5024283;28;20184;-87
2024/03/06 14:15:00;;;;;;;23.80;14.70;;;;;;;;;;5037604;28;20185;-85
2024/03/06 14:18:06;;;;;;;20.37;13.67;;;;;;;;;;5040646;28;20173;-88
2024/03/06 14:21:14;;;;;;;23.20;13.07;;;;;;;;;;5025047;28;20213;-88
2024/03/06 14:24:20;;;;;;;21.20;13.10;;;;;;;;;;5027964;28;20177;-88
2024/03/06 14:27:24;;;;;;;19.60;13.47;;;;;;;;;;5028147;28;20212;-87
2024/03/06 14:30:29;;;;;;;20.63;14.07;;;;;;;;;;5040439;28;20219;-88
2024/03/06 14:33:34;;;;;;;21.17;12.87;;;;;;;;;;5040482;28;20181;-87
2024/03/06 14:36:39;;;;;;;21.20;13.37;;;;;;;;;;5028282;28;20531;-88
2024/03/06 14:39:46;;;;;;;20.80;12.77;;;;;;;;;;5037751;28;20212;-89
2024/03/06 14:42:50;;;;;;;20.47;12.90;;;;;;;;;;5013382;28;20185;-88
2024/03/06 14:45:55;;;;;;;22.70;13.37;;;;;;;;;;5025670;28;20181;-88
2024/03/06 14:49:02;;;;;;;22.20;13.73;;;;;;;;;;5037005;28;20209;-88
2024/03/06 14:52:07;;;;;;;20.93;13.83;;;;;;;;;;5014734;28;20646;-89
2024/03/06 14:55:11;;;;;;;25.97;16.10;;;;;;;;;;5037260;28;20173;-87
2024/03/06 14:58:15;;;;;;;24.80;16.00;;;;;;;;;;5047316;28;20177;-87
2024/03/06 15:01:19;;;;;;;22.27;14.37;;;;;;;;;;5040655;28;20216;-87
2024/03/06 15:04:24;;;;;;;99.00;40.33;;;;;;;;;;5041433;28;20185;-87
2024/03/06 15:07:28;;;;;;;163.03;61.17;;;;;;;;;;5042023;28;20212;-87
2024/03/06 15:10:33;;;;;;;47.20;24.50;;;;;;;;;;5029189;28;20223;-86
2024/03/06 15:13:37;;;;;;;118.17;49.70;;;;;;;;;;5018862;28;20662;-86
2024/03/06 15:16:42;;;;;;;66.40;41.40;;;;;;;;;;5053909;28;20192;-87
2024/03/06 15:19:48;;;;;;;38.77;25.40;;;;;;;;;;5044774;28;20562;-87
2024/03/06 15:22:52;;;;;;;30.53;21.73;;;;;;;;;;5032117;28;20181;-87
2024/03/06 15:25:57;;;;;;;26.67;18.20;;;;;;;;;;5044056;28;20189;-86
2024/03/06 15:29:04;;;;;;;28.40;17.23;;;;;;;;;;5044534;28;20213;-86
2024/03/06 15:32:10;;;;;;;26.70;16.17;;;;;;;;;;5033318;28;20181;-86
2024/03/06 15:35:14;;;;;;;42.90;26.73;;;;;;;;;;5030664;28;20181;-86
2024/03/06 15:38:20;;;;;;;81.27;46.53;;;;;;;;;;5032023;28;20181;-86
2024/03/06 15:41:24;;;;;;;53.73;33.47;;;;;;;;;;5043368;28;20224;-86
2024/03/06 15:44:28;;;;;;;31.33;18.90;;;;;;;;;;5038849;28;20185;-86
2024/03/06 15:47:34;;;;;;;36.47;22.23;;;;;;;;;;5038608;28;20200;-86
2024/03/06 15:50:37;;;;;;;27.30;16.57;;;;;;;;;;5027334;28;20224;-85
2024/03/06 15:53:42;;;;;;;25.73;16.70;;;;;;;;;;5016441;28;20626;-85
2024/03/06 15:56:46;;;;;;;25.70;17.30;;;;;;;;;;5028121;28;20177;-85
2024/03/06 15:59:50;;;;;;;30.57;18.20;;;;;;;;;;5027740;28;20212;-85
2024/03/06 16:02:55;;;;;;;30.10;18.00;;;;;;;;;;5026695;28;20204;-86
2024/03/06 16:06:02;;;;;;;28.60;16.60;;;;;;;;;;5039068;28;20176;-86
2024/03/06 16:09:13;;;;;;;28.97;18.00;;;;;;;;;;5038237;28;20209;-85
2024/03/06 16:12:17;;;;;;;30.97;18.30;;;;;;;;;;5037926;28;20176;-85
2024/03/06 16:15:21;;;;;;;29.07;18.00;;;;;;;;;;5027382;28;20180;-85
2024/03/06 16:18:27;;;;;;;27.77;16.30;;;;;;;;;;5039124;28;20181;-86
2024/03/06 16:21:31;;;;;;;28.97;18.10;;;;;;;;;;5038669;28;20678;-86
2024/03/06 16:24:36;;;;;;;30.40;18.23;;;;;;;;;;5003580;28;20682;-87
2024/03/06 16:27:40;;;;;;;29.50;17.67;;;;;;;;;;5025451;28;20209;-90
2024/03/06 16:30:45;;;;;;;32.77;19.37;;;;;;;;;;5038463;28;20216;-89
2024/03/06 16:33:49;;;;;;;34.63;20.40;;;;;;;;;;5039230;28;20181;-88
2024/03/06 16:36:53;;;;;;;31.10;19.07;;;;;;;;;;5037627;28;20181;-89
2024/03/06 16:39:57;;;;;;;28.57;17.77;;;;;;;;;;5026546;28;20220;-88
2024/03/06 16:43:01;;;;;;;29.90;18.53;;;;;;;;;;5014129;28;20181;-88
2024/03/06 16:46:06;;;;;;;30.30;18.93;;;;;;;;;;5025091;28;20185;-88
2024/03/06 16:49:12;;;;;;;28.13;17.03;;;;;;;;;;5036718;28;20209;-88
2024/03/06 16:52:17;;;;;;;32.37;18.87;;;;;;;;;;5026907;28;20518;-88
2024/03/06 16:55:22;;;;;;;30.63;19.13;;;;;;;;;;5036695;28;20177;-89
2024/03/06 16:58:27;;;;;;;31.77;19.00;;;;;;;;;;5014585;28;20177;-89
2024/03/06 17:01:31;;;;;;;29.90;19.13;;;;;;;;;;5036330;28;20236;-88
2024/03/06 17:04:35;;;;;;;30.87;19.00;;;;;;;;;;5047473;28;20176;-88
2024/03/06 17:07:42;;;;;;;33.60;17.70;;;;;;;;;;5025596;28;20181;-88
2024/03/06 17:10:46;;;;;;;29.70;17.93;;;;;;;;;;5036732;28;20217;-88
2024/03/06 17:13:50;;;;;;;30.23;18.60;;;;;;;;;;5024850;28;20180;-88
2024/03/06 17:17:19;;;;;;;29.57;19.37;;;;;;;;;;5025079;28;20630;-88
2024/03/06 17:20:23;;;;;;;27.60;17.60;;;;;;;;;;5036190;28;20217;-87
2024/03/06 17:23:28;;;;;;;29.07;17.30;;;;;;;;;;5036754;28;20192;-87
2024/03/06 17:26:37;;;;;;;35.57;23.37;;;;;;;;;;5024991;28;20185;-87
2024/03/06 17:29:42;;;;;;;29.60;18.37;;;;;;;;;;5026242;28;20224;-85
2024/03/06 17:32:51;;;;;;;33.13;19.30;;;;;;;;;;5036065;28;20185;-89
2024/03/06 17:35:59;;;;;;;30.70;17.90;;;;;;;;;;5024618;28;20180;-86
2024/03/06 17:39:06;;;;;;;30.00;17.67;;;;;;;;;;5035301;28;20198;-85
2024/03/06 17:42:10;;;;;;;31.40;18.63;;;;;;;;;;5024119;28;20523;-86
2024/03/06 17:45:14;;;;;;;37.13;19.03;;;;;;;;;;5035616;28;20185;-85
2024/03/06 17:48:18;;;;;;;31.33;19.27;;;;;;;;;;5024003;28;20204;-86
2024/03/06 17:51:29;;;;;;;33.60;19.13;;;;;;;;;;5035948;28;20677;-85
2024/03/06 17:54:35;;;;;;;32.97;18.33;;;;;;;;;;5035512;28;20181;-85
2024/03/06 17:57:45;;;;;;;36.07;20.73;;;;;;;;;;5035512;28;20189;-85
2024/03/06 18:00:49;;;;;;;33.27;19.53;;;;;;;;;;5034970;28;20673;-86
2024/03/06 18:03:53;;;;;;;31.07;18.00;;;;;;;;;;5024260;28;20181;-85
2024/03/06 18:06:57;;;;;;;30.47;19.37;;;;;;;;;;5035490;28;20177;-85
2024/03/06 18:10:04;;;;;;;36.70;21.77;;;;;;;;;;5024174;28;20232;-84